Nearby METAR Reports

 

KCGS - College Park, Maryland, USA
Distance from station: S 2mi, 3km
Updated: 11/18/2018 1:22am
Clear
Clear
 Wind from calm
Wind: Calm
Temperature: 30°F , -1°C
Dew Point: 28°F , -2°C
Humidity: 93%
Barometer: 30.34 inHg , 1027.4 hPa
Clouds: Clear
Visibility: 5 miles , 8 km
2018/11/18 06:22 KCGS 180622Z AUTO 00000KT 5SM CLR M01/M02 A3034 RMK AO1 T10101016
KFME - Fort Meade, Maryland, USA
Distance from station: ENE 10mi, 15km
Updated: 11/18/2018 1:21am
Clear
Clear
 Wind from calm
Wind: Calm
Temperature: 30°F , -1°C
Dew Point: 28°F , -2°C
Humidity: 93%
Barometer: 30.36 inHg , 1028.1 hPa
Clouds: Clear
Visibility: 7 miles , 11 km
2018/11/18 06:21 KFME 180621Z AUTO 00000KT 7SM CLR M01/M02 A3036 RMK AO1
KDCA - Washington/Natl, Washington D.c., USA
Distance from station: SSW 13mi, 20km
Updated: 11/18/2018 12:52am
Mostly cloudy
Mostly cloudy
 Wind from SSW
Wind: SSW 3 mph , 6 km/h
Temperature: 37°F , 3°C
Dew Point: 34°F , 1°C
Humidity: 87%
Barometer: 30.35 inHg , 1027.8 hPa
Clouds: Mostly cloudy
Visibility: 9 miles , 14 km
Cloud details: Mostly cloudy 20000 ft
2018/11/18 05:52 KDCA 180552Z 20003KT 9SM BKN200 03/01 A3035 RMK AO2 SLP277 T00330006 10072 20033 51003
 
KADW - Andrews Afb, Maryland, USA
Distance from station: SSE 14mi, 22km
Updated: 11/18/2018 12:56am
Clear
Clear
 Wind from calm
Wind: Calm
Temperature: 32°F , 0°C
Dew Point: 28°F , -2°C
Humidity: 87%
Barometer: 30.33 inHg , 1027.1 hPa
Clouds: Clear
Visibility: 10 miles , 16 km
2018/11/18 05:56 KADW 180556Z AUTO 00000KT 10SM CLR 00/M02 A3033 RMK AO2 SLP280 T10051018 10034 21005 $
KBWI - Balto/Wash Intl, Maryland, USA
Distance from station: NE 17mi, 27km
Updated: 11/18/2018 12:54am
Few Clouds
Few Clouds
 Wind from calm
Wind: Calm
Temperature: 30°F , -1°C
Dew Point: 28°F , -2°C
Humidity: 93%
Barometer: 30.33 inHg , 1027.1 hPa
Clouds: Few Clouds
Visibility: 10 miles , 16 km
Cloud details: Few Clouds 14000 ft
2018/11/18 05:54 KBWI 180554Z 00000KT 10SM FEW140 M01/M02 A3033 RMK AO2 SLP271 T10111017 10044 21017 51001
KGAI - Gaithersburg, Maryland, USA
Distance from station: NW 17mi, 28km
Updated: 11/18/2018 12:56am
Mostly cloudy
Mostly cloudy
 Wind from calm
Wind: Calm
Temperature: 28°F , -2°C
Dew Point: 27°F , -3°C
Humidity: 93%
Barometer: 30.32 inHg , 1026.8 hPa
Clouds: Mostly cloudy
Visibility: 8 miles , 13 km
Cloud details: Mostly cloudy 5500 ft
2018/11/18 05:56 KGAI 180556Z AUTO 00000KT 8SM BKN055 M02/M03 A3032 RMK AO2 SLP300 T10171028 10039 21022 56002 FZRANO
 
KNAK - Annapolis/Naval, Maryland, USA
Distance from station: E 23mi, 38km
Updated: 11/18/2018 12:54am
Mist, Clear
Mist, Clear
 Wind from calm
Wind: Calm
Temperature: 39°F , 4°C
Dew Point: 36°F , 2°C
Humidity: 87%
Barometer: 30.33 inHg , 1027.1 hPa
Summary: Mist
Clouds: Clear
Visibility: 6 miles , 10 km
2018/11/18 05:54 KNAK 180554Z AUTO 00000KT 6SM BR CLR 04/02 A3033 RMK AO2 SLP273 T00390017 10067 20039 50000
KDAA - Fort Belvoir/Dav, Virginia, USA
Distance from station: SSW 24mi, 39km
Updated: 11/18/2018 12:56am
Clear
Clear
 Wind from calm
Wind: Calm
Temperature: 30°F , -1°C
Dew Point: 30°F , -1°C
Humidity: 100%
Barometer: 30.34 inHg , 1027.4 hPa
Clouds: Clear
Visibility: 9 miles , 14 km
2018/11/18 05:56 KDAA 180556Z AUTO 00000KT 9SM CLR M01/M01 A3034 RMK AO2 SLP278 T10091010 10026 21010 50002 TSNO $
KDMH - Baltimore/Dwntwn, Maryland, USA
Distance from station: NE 25mi, 40km
Updated: 11/18/2018 12:54am

 
Temperature: 43°F , 6°C
Dew Point: 30°F , -1°C
Humidity: 61%
Barometer: 30.33 inHg , 1027.1 hPa
2018/11/18 05:54 KDMH 180554Z AUTO 06/M01 A3033 RMK AO1 SLP268 T00561011 10078 20050 58003
 
KIAD - Wash Dc/Dulles, Virginia, USA
Distance from station: W 29mi, 47km
Updated: 11/18/2018 12:52am
Mist, Clear
Mist, Clear
 Wind from calm
Wind: Calm
Temperature: 30°F , -1°C
Dew Point: 28°F , -2°C
Humidity: 93%
Barometer: 30.33 inHg , 1027.1 hPa
Summary: Mist
Clouds: Clear
Visibility: 6 miles , 10 km
2018/11/18 05:52 KIAD 180552Z 00000KT 6SM BR CLR M01/M02 A3033 RMK AO2 SLP274 I1000 I6000 T10111017 10028 21017 50000
KW29 - Stevensville, Maryland, USA
Distance from station: E 31mi, 51km
Updated: 11/18/2018 1:20am
Clear
Clear
 Wind from calm
Wind: Calm
Temperature: 39°F , 4°C
Dew Point: 34°F , 1°C
Humidity: 81%
Barometer: 30.34 inHg , 1027.4 hPa
Clouds: Clear
Visibility: 10 miles , 16 km
2018/11/18 06:20 KW29 180620Z AUTO 00000KT 10SM CLR 04/01 A3034 RMK AO2
KMTN - Baltimore/Martin, Maryland, USA
Distance from station: NE 34mi, 55km
Updated: 11/18/2018 1:21am
Clear
Clear
 Wind from calm
Wind: Calm
Temperature: 34°F , 1°C
Dew Point: 32°F , 0°C
Humidity: 93%
Barometer: 30.34 inHg , 1027.4 hPa
Clouds: Clear
Visibility: 7 miles , 11 km
2018/11/18 06:21 KMTN 180621Z AUTO 00000KT 7SM CLR 01/00 A3034 RMK AO2
 
KJYO - Leesburg/Godfrey, Virginia, USA
Distance from station: W 35mi, 56km
Updated: 11/18/2018 1:15am
Clear
Clear
 Wind from calm
Wind: Calm
Temperature: 32°F , 0°C
Dew Point: 32°F , 0°C
Humidity: 100%
Barometer: 30.34 inHg , 1027.4 hPa
Clouds: Clear
Visibility: 7 miles , 11 km
2018/11/18 06:15 KJYO 180615Z AUTO 00000KT 7SM CLR 00/00 A3034 RMK AO2
KFDK - Frederick, Maryland, USA
Distance from station: NW 37mi, 60km
Updated: 11/18/2018 1:20am
Overcast
Overcast
 Wind from calm
Wind: Calm
Temperature: 32°F , 0°C
Dew Point: 32°F , 0°C
Humidity: 100%
Barometer: 30.36 inHg , 1028.1 hPa
Clouds: Overcast
Visibility: 7 miles , 11 km
Cloud details: Overcast 5000 ft
2018/11/18 06:20 KFDK 180620Z AUTO 00000KT 7SM OVC050 00/00 A3036 RMK AO2
KHEF - Manassas Muni, Virginia, USA
Distance from station: WSW 38mi, 61km
Updated: 11/18/2018 12:56am
Mist, Clear
Mist, Clear
 Wind from calm
Wind: Calm
Temperature: 28°F , -2°C
Dew Point: 27°F , -3°C
Humidity: 93%
Barometer: 30.35 inHg , 1027.8 hPa
Summary: Mist
Clouds: Clear
Visibility: 5 miles , 8 km
2018/11/18 05:56 KHEF 180556Z AUTO 00000KT 5SM BR CLR M02/M03 A3035 RMK AO2 SLP289 6//// T10221033 10033 21022 50002 PNO $
 
KNYG - Quantico Mcaf, Virginia, USA
Distance from station: SSW 40mi, 65km
Updated: 11/18/2018 12:56am
Clear
Clear
 Wind from NW
Wind: NW 7 mph , 11 km/h
Temperature: 34°F , 1°C
Wind Chill: 28°F , -2°C
Dew Point: 34°F , 1°C
Humidity: 100%
Barometer: 30.36 inHg , 1028.1 hPa
Clouds: Clear
Visibility: 10 miles , 16 km
2018/11/18 05:56 KNYG 180556Z AUTO 31006KT 10SM CLR 01/01 A3036 RMK AO2 SLP281 T00110006 10050 20011 51004
KDMW - Carroll Cnty, Maryland, USA
Distance from station: N 41mi, 66km
Updated: 11/18/2018 1:20am
Clear
Clear
 Wind from calm
Wind: Calm
Temperature: 34°F , 1°C
Dew Point: 28°F , -2°C
Humidity: 81%
Barometer: 30.30 inHg , 1026.1 hPa
Clouds: Clear
Visibility: 10 miles , 16 km
2018/11/18 06:20 KDMW 180620Z AUTO 00000KT 10SM CLR 01/M02 A3030 RMK AO2
KESN - Easton/Newnam, Maryland, USA
Distance from station: ESE 48mi, 77km
Updated: 11/17/2018 9:45pm
NOT Current
Clear
Clear
 Wind from calm
Wind: Calm
Temperature: 37°F , 3°C
Dew Point: 36°F , 2°C
Humidity: 93%
Barometer: 30.37 inHg , 1028.4 hPa
Clouds: Clear
Visibility: 10 miles , 16 km
2018/11/18 02:45 KESN 180245Z 00000KT 10SM SKC 03/02 A3037